.
WxDataArchive / Data Records for 2013-07-15
2013-07-14 July 2013 2013-07-16

Data Records for Monday, 15 July 2013

Time	Temp	Chill	HIndex	Humid	Dewpt	 Wind 	HiWind	WindDir	Rain 	Barom 
-----	----	-----	------	-----	-----	------	------	-------	-----	----- 
00:00	76.7	76.7	77.9	83	71.1	0	2	90	0.00	30.202 
00:05	76.7	76.7	77.9	83	71.1	0	2	90	0.00	30.202 
00:10	76.5	76.5	77.6	83	70.9	0	2	90	0.00	30.202 
00:15	76.5	76.5	77.6	83	70.9	0	3	90	0.00	30.202 
00:20	76.5	76.5	77.6	83	70.9	0	2	90	0.00	30.202 
00:25	76.5	76.5	77.6	83	70.9	0	2	90	0.00	30.202 
00:30	76.3	76.3	77.2	83	70.7	0	2	90	0.00	30.201 
00:35	76.1	76.1	76.8	84	70.9	0	1	90	0.00	30.201 
00:40	76.1	76.1	76.8	84	70.9	0	2	90	0.00	30.201 
00:45	76.0	76.0	76.7	84	70.8	0	2	90	0.00	30.204 
00:50	76.0	76.0	76.7	84	70.8	0	2	90	0.00	30.204 
00:55	75.8	75.8	76.2	85	71.0	0	2	90	0.00	30.204 
01:00	75.8	75.8	76.2	85	71.0	0	2	90	0.00	30.203 
01:05	75.8	75.8	76.2	85	71.0	1	2	90	0.00	30.203 
01:10	75.6	75.6	75.9	85	70.8	0	2	90	0.00	30.203 
01:15	75.6	75.6	75.9	85	70.8	0	1	90	0.00	30.203 
01:20	75.4	75.4	75.4	86	70.9	0	2	90	0.00	30.203 
01:25	75.3	75.3	75.2	86	70.8	0	3	90	0.00	30.203 
01:30	75.3	75.3	75.2	86	70.8	0	1	90	0.00	30.204 
01:35	75.1	75.1	74.9	86	70.6	0	1	90	0.00	30.204 
01:40	74.9	74.9	74.9	87	70.8	0	1	90	0.00	30.204 
01:45	74.9	74.9	74.9	87	70.8	0	2	90	0.00	30.206 
01:50	74.7	74.7	74.7	87	70.6	0	1	90	0.00	30.206 
01:55	74.7	74.7	74.7	87	70.6	0	0	---	0.00	30.206 
02:00	74.6	74.6	74.6	87	70.5	0	0	---	0.00	30.205 
02:05	74.6	74.6	74.6	88	70.8	0	1	90	0.00	30.205 
02:10	74.4	74.4	74.4	88	70.6	0	1	90	0.00	30.205 
02:15	74.4	74.4	74.4	88	70.6	0	1	90	0.00	30.205 
02:20	74.2	74.2	74.2	88	70.4	0	1	90	0.00	30.205 
02:25	74.2	74.2	74.2	88	70.4	0	2	90	0.00	30.205 
02:30	74.0	74.0	74.0	89	70.5	0	1	90	0.00	30.205 
02:35	74.0	74.0	74.0	89	70.5	0	1	90	0.00	30.205 
02:40	74.0	74.0	74.0	89	70.5	0	1	90	0.00	30.205 
02:45	73.9	73.9	73.9	89	70.4	0	1	90	0.00	30.207 
02:50	73.9	73.9	73.9	89	70.4	0	2	90	0.00	30.207 
02:55	73.7	73.7	73.7	89	70.2	0	2	90	0.00	30.207 
03:00	73.7	73.7	73.7	89	70.2	0	1	90	0.00	30.209 
03:05	73.5	73.5	73.5	89	70.0	0	2	90	0.00	30.209 
03:10	73.5	73.5	73.5	90	70.4	0	1	90	0.00	30.209 
03:15	73.3	73.3	73.3	90	70.2	0	0	---	0.00	30.208 
03:20	73.3	73.3	73.3	90	70.2	0	1	90	0.00	30.208 
03:25	73.3	73.3	73.3	90	70.2	0	0	---	0.00	30.208 
03:30	73.2	73.2	73.2	90	70.1	0	1	90	0.00	30.208 
03:35	73.2	73.2	73.2	91	70.4	0	1	90	0.00	30.208 
03:40	73.2	73.2	73.2	91	70.4	0	1	90	0.00	30.208 
03:45	73.2	73.2	73.2	91	70.4	0	1	90	0.00	30.208 
03:50	73.0	73.0	73.0	91	70.2	0	0	---	0.00	30.208 
03:55	73.0	73.0	73.0	91	70.2	0	0	---	0.00	30.208 
04:00	72.8	72.8	72.8	91	70.0	0	0	---	0.00	30.208 
04:05	72.8	72.8	72.8	91	70.0	0	0	---	0.00	30.208 
04:10	72.8	72.8	72.8	91	70.0	0	0	---	0.00	30.208 
04:15	72.8	72.8	72.8	91	70.0	0	0	---	0.00	30.212 
04:20	72.8	72.8	72.8	92	70.3	0	1	90	0.00	30.212 
04:25	73.0	73.0	73.0	92	70.5	0	0	---	0.00	30.212 
04:30	73.0	73.0	73.0	92	70.5	0	0	---	0.00	30.209 
04:35	72.8	72.8	72.8	92	70.3	0	0	---	0.00	30.209 
04:40	72.8	72.8	72.8	92	70.3	0	0	---	0.00	30.209 
04:45	72.8	72.8	72.8	92	70.3	0	0	---	0.00	30.211 
04:50	72.7	72.7	72.7	92	70.2	0	0	---	0.00	30.211 
04:55	72.7	72.7	72.7	92	70.2	0	0	---	0.00	30.211 
05:00	72.5	72.5	72.5	92	70.0	0	0	---	0.00	30.216 
05:05	72.5	72.5	72.5	92	70.0	0	0	---	0.00	30.216 
05:10	72.3	72.3	72.3	92	69.8	0	0	---	0.00	30.216 
05:15	72.1	72.1	72.1	92	69.6	0	0	---	0.00	30.221 
05:20	72.1	72.1	72.1	93	70.0	0	0	---	0.00	30.221 
05:25	72.0	72.0	72.0	93	69.9	0	0	---	0.00	30.221 
05:30	72.0	72.0	72.0	93	69.9	0	0	---	0.00	30.223 
05:35	71.8	71.8	71.8	93	69.7	0	0	---	0.00	30.223 
05:40	71.8	71.8	71.8	93	69.7	0	0	---	0.00	30.223 
05:45	71.6	71.6	71.6	93	69.5	0	0	---	0.00	30.224 
05:50	71.6	71.6	71.6	93	69.5	0	0	---	0.00	30.224 
05:55	71.5	71.5	71.5	93	69.4	0	0	---	0.00	30.224 
06:00	71.5	71.5	71.5	93	69.4	0	0	---	0.00	30.225 
06:05	71.3	71.3	71.3	93	69.2	0	0	---	0.00	30.225 
06:10	71.3	71.3	71.3	93	69.2	0	0	---	0.00	30.225 
06:15	71.3	71.3	71.3	93	69.2	0	0	---	0.00	30.230 
06:20	71.1	71.1	71.1	93	69.0	0	0	---	0.00	30.230 
06:25	71.1	71.1	71.1	94	69.3	0	0	---	0.00	30.230 
06:30	71.1	71.1	71.1	94	69.3	0	0	---	0.00	30.232 
06:35	71.1	71.1	71.1	94	69.3	0	0	---	0.00	30.232 
06:40	71.1	71.1	71.1	94	69.3	0	0	---	0.00	30.232 
06:45	71.1	71.1	71.1	94	69.3	0	0	---	0.00	30.239 
06:50	71.1	71.1	71.1	94	69.3	0	0	---	0.00	30.239 
06:55	71.1	71.1	71.1	94	69.3	0	0	---	0.00	30.239 
07:00	71.1	71.1	71.1	94	69.3	0	0	---	0.00	30.240 
07:05	71.3	71.3	71.3	95	69.8	0	0	---	0.00	30.240 
07:10	71.8	71.8	71.8	95	70.3	0	0	---	0.00	30.240 
07:15	72.0	72.0	72.0	94	70.2	0	0	---	0.00	30.242 
07:20	72.1	72.1	72.1	95	70.6	0	0	---	0.00	30.242 
07:25	72.3	72.3	72.3	95	70.8	0	1	90	0.00	30.242 
07:30	72.7	72.7	72.7	95	71.2	0	1	90	0.00	30.250 
07:35	73.2	73.2	73.2	94	71.4	0	1	90	0.00	30.250 
07:40	73.5	73.5	73.5	94	71.7	0	1	90	0.00	30.250 
07:45	74.0	74.0	74.0	93	71.8	0	1	90	0.00	30.251 
07:50	74.4	74.4	74.4	92	71.9	0	1	90	0.00	30.251 
07:55	74.9	74.9	74.9	91	72.1	0	2	90	0.00	30.251 
08:00	75.6	75.6	75.2	90	72.4	0	1	90	0.00	30.255 
08:05	76.3	76.3	76.8	88	72.5	0	1	90	0.00	30.255 
08:10	76.8	76.8	77.9	87	72.6	0	1	90	0.00	30.255 
08:15	77.7	77.7	79.8	85	72.8	0	0	---	0.00	30.255 
08:20	78.5	78.5	81.4	83	72.9	0	1	90	0.00	30.255 
08:25	79.2	79.2	82.7	81	72.8	0	1	90	0.00	30.255 
08:30	79.8	79.8	83.7	79	72.7	0	1	90	0.00	30.254 
08:35	80.3	80.3	84.6	78	72.8	0	3	90	0.00	30.254 
08:40	80.7	80.7	85.2	77	72.8	1	4	90	0.00	30.254 
08:45	81.1	81.1	85.9	76	72.8	0	2	90	0.00	30.256 
08:50	81.2	81.2	85.9	75	72.5	0	1	90	0.00	30.256 
08:55	81.6	81.6	86.5	74	72.5	0	2	90	0.00	30.256 
09:00	82.2	82.2	87.8	74	73.1	0	1	90	0.00	30.258 
09:05	82.6	82.6	88.4	73	73.0	0	1	90	0.00	30.258 
09:10	83.2	83.2	89.4	72	73.2	0	1	90	0.00	30.258 
09:15	84.0	84.0	90.5	70	73.1	0	1	90	0.00	30.262 
09:20	84.5	84.5	90.9	68	72.7	0	1	90	0.00	30.262 
09:25	84.0	84.0	89.5	67	71.8	0	2	90	0.00	30.262 
09:30	83.6	83.6	89.3	69	72.3	0	2	90	0.00	30.262 
09:35	83.8	83.8	89.7	69	72.5	0	1	90	0.00	30.262 
09:40	84.0	84.0	90.2	69	72.7	0	1	90	0.00	30.262 
09:45	84.0	84.0	89.8	68	72.3	0	1	90	0.00	30.264 
09:50	84.0	84.0	89.8	68	72.3	0	2	90	0.00	30.264 
09:55	84.7	84.7	90.6	66	72.1	1	3	90	0.00	30.264 
10:00	85.1	85.1	90.8	64	71.5	0	3	90	0.00	30.262 
10:05	84.7	84.7	90.0	64	71.1	1	3	90	0.00	30.262 
10:10	84.5	84.5	89.3	63	70.5	0	1	90	0.00	30.262 
10:15	84.7	84.7	90.0	64	71.1	0	3	90	0.00	30.259 
10:20	85.3	85.3	90.1	61	70.3	0	3	90	0.00	30.259 
10:25	85.9	85.9	90.2	58	69.4	0	2	90	0.00	30.259 
10:30	85.7	85.7	90.9	61	70.7	0	2	90	0.00	30.254 
10:35	85.5	85.5	90.2	60	70.0	0	2	90	0.00	30.254 
10:40	85.7	85.7	90.9	61	70.7	0	2	90	0.00	30.254 
10:45	85.7	85.7	89.9	58	69.2	0	2	90	0.00	30.257 
10:50	85.7	85.7	90.9	61	70.7	0	3	90	0.00	30.257 
10:55	86.3	86.3	90.9	58	69.7	0	3	90	0.00	30.257 
11:00	87.0	87.0	92.3	58	70.4	0	2	90	0.00	30.258 
11:05	87.6	87.6	92.2	55	69.4	1	3	90	0.00	30.258 
11:10	88.0	88.0	93.4	56	70.3	1	3	90	0.00	30.258 
11:15	88.4	88.4	93.3	54	69.6	0	2	90	0.00	30.261 
11:20	88.8	88.8	94.1	54	70.0	0	2	90	0.00	30.261 
11:25	88.8	88.8	94.1	54	70.0	1	4	90	0.00	30.261 
11:30	88.8	88.8	93.7	53	69.4	1	2	90	0.00	30.258 
11:35	89.0	89.0	94.0	53	69.6	1	2	90	0.00	30.258 
11:40	89.0	89.0	94.0	53	69.6	0	2	90	0.00	30.258 
11:45	89.3	89.3	95.1	54	70.4	1	3	90	0.00	30.258 
11:50	89.3	89.3	96.5	57	72.0	1	4	90	0.00	30.258 
11:55	89.0	89.0	94.0	53	69.6	0	2	90	0.00	30.258 
12:00	89.3	89.3	95.1	54	70.4	0	1	90	0.00	30.257 
12:05	89.3	89.3	94.6	53	69.9	1	4	90	0.00	30.257 
12:10	89.3	89.3	95.1	54	70.4	1	3	90	0.00	30.257 
12:15	89.0	89.0	94.9	55	70.7	0	2	90	0.00	30.260 
12:20	88.4	88.4	94.6	57	71.2	0	2	90	0.00	30.260 
12:25	88.4	88.4	93.3	54	69.6	0	2	90	0.00	30.260 
12:30	88.8	88.8	94.1	54	70.0	0	3	90	0.00	30.260 
12:35	89.0	89.0	94.9	55	70.7	1	3	90	0.00	30.260 
12:40	88.8	88.8	93.7	53	69.4	0	3	90	0.00	30.260 
12:45	88.2	88.2	93.4	55	70.0	0	1	90	0.00	30.260 
12:50	88.4	88.4	94.2	56	70.7	0	2	90	0.00	30.260 
12:55	89.3	89.3	95.1	54	70.4	1	2	90	0.00	30.260 
13:00	89.9	89.9	96.8	55	71.5	0	2	90	0.00	30.257 
13:05	90.5	90.5	98.1	55	72.1	1	3	90	0.00	30.257 
13:10	91.0	91.0	99.2	55	72.5	1	4	90	0.00	30.257 
13:15	91.0	91.0	98.6	54	72.0	1	4	135	0.00	30.254 
13:20	91.0	91.0	98.1	53	71.4	1	4	135	0.00	30.254 
13:25	90.5	90.5	97.5	54	71.5	1	4	112	0.00	30.254 
13:30	89.9	89.9	96.3	54	71.0	2	4	90	0.00	30.251 
13:35	89.5	89.5	95.5	54	70.6	2	4	90	0.00	30.251 
13:40	89.7	89.7	95.4	53	70.3	1	5	90	0.00	30.251 
13:45	89.9	89.9	96.8	55	71.5	2	3	90	0.00	30.250 
13:50	90.3	90.3	97.1	54	71.4	1	3	112	0.00	30.250 
13:55	90.7	90.7	98.5	55	72.3	1	3	135	0.00	30.250 
14:00	91.0	91.0	96.5	50	69.7	0	2	135	0.00	30.247 
14:05	91.0	91.0	96.5	50	69.7	1	3	135	0.00	30.247 
14:10	90.7	90.7	97.4	53	71.2	1	4	112	0.00	30.247 
14:15	90.7	90.7	97.4	53	71.2	1	3	112	0.00	30.247 
14:20	90.5	90.5	97.0	53	71.0	0	2	135	0.00	30.247 
14:25	90.7	90.7	98.0	54	71.7	1	3	135	0.00	30.247 
14:30	90.7	90.7	96.9	52	70.6	1	3	135	0.00	30.244 
14:35	90.3	90.3	97.1	54	71.4	1	5	90	0.00	30.244 
14:40	90.1	90.1	96.7	54	71.2	1	3	90	0.00	30.244 
14:45	90.3	90.3	96.1	52	70.2	1	3	90	0.00	30.240 
14:50	89.9	89.9	96.3	54	71.0	1	4	90	0.00	30.240 
14:55	89.5	89.5	95.0	53	70.1	0	2	90	0.00	30.240 
15:00	89.7	89.7	95.9	54	70.8	1	3	90	0.00	30.237 
15:05	90.1	90.1	96.7	54	71.2	1	3	90	0.00	30.237 
15:10	90.7	90.7	98.0	54	71.7	1	4	90	0.00	30.237 
15:15	91.2	91.2	99.0	54	72.2	0	2	90	0.00	30.234 
15:20	91.6	91.6	99.4	53	72.0	0	2	90	0.00	30.234 
15:25	91.8	91.8	98.7	51	71.0	0	2	90	0.00	30.234 
15:30	92.1	92.1	99.9	52	71.9	0	0	---	0.00	30.232 
15:35	91.6	91.6	98.8	52	71.4	0	1	112	0.00	30.232 
15:40	91.0	91.0	99.2	55	72.5	1	3	112	0.00	30.232 
15:45	90.7	90.7	96.4	51	70.0	1	3	112	0.00	30.232 
15:50	91.0	91.0	97.5	52	70.9	1	3	112	0.00	30.232 
15:55	91.0	91.0	98.1	53	71.4	1	3	135	0.00	30.232 
16:00	89.9	89.9	96.8	55	71.5	2	5	90	0.00	30.231 
16:05	89.7	89.7	97.9	58	72.9	1	2	225	0.00	30.231 
16:10	89.7	89.7	95.9	54	70.8	1	3	68	0.00	30.231 
16:15	89.7	89.7	96.4	55	71.3	1	2	292	0.00	30.225 
16:20	90.1	90.1	96.7	54	71.2	1	4	112	0.00	30.225 
16:25	90.3	90.3	97.6	55	71.9	1	3	90	0.00	30.225 
16:30	90.7	90.7	98.5	55	72.3	1	3	90	0.00	30.222 
16:35	91.2	91.2	98.0	52	71.1	0	4	90	0.00	30.222 
16:40	91.2	91.2	98.0	52	71.1	0	2	270	0.00	30.222 
16:45	91.0	91.0	97.5	52	70.9	0	2	202	0.00	30.219 
16:50	91.2	91.2	99.0	54	72.2	0	2	68	0.00	30.219 
16:55	91.4	91.4	100.7	56	73.5	0	1	22	0.00	30.219 
17:00	91.6	91.6	99.9	54	72.6	0	2	158	0.00	30.217 
17:05	91.4	91.4	98.4	52	71.3	1	3	45	0.00	30.217 
17:10	91.0	91.0	97.5	52	70.9	1	3	68	0.00	30.217 
17:15	90.7	90.7	98.5	55	72.3	1	3	90	0.00	30.218 
17:20	90.5	90.5	97.0	53	71.0	1	2	338	0.00	30.218 
17:25	90.1	90.1	96.2	53	70.6	0	1	338	0.00	30.218 
17:30	89.7	89.7	95.9	54	70.8	0	3	112	0.00	30.212 
17:35	89.5	89.5	95.9	55	71.2	0	1	112	0.00	30.212 
17:40	89.7	89.7	95.9	54	70.8	0	3	135	0.00	30.212 
17:45	89.7	89.7	95.4	53	70.3	0	1	135	0.00	30.210 
17:50	89.5	89.5	95.0	53	70.1	0	2	135	0.00	30.210 
17:55	89.5	89.5	95.9	55	71.2	0	3	135	0.00	30.210 
18:00	89.3	89.3	95.1	54	70.4	1	3	112	0.00	30.207 
18:05	89.0	89.0	94.5	54	70.2	1	3	338	0.00	30.207 
18:10	89.3	89.3	95.5	55	71.0	0	2	22	0.00	30.207 
18:15	88.8	88.8	94.1	54	70.0	0	1	22	0.00	30.209 
18:20	88.4	88.4	94.2	56	70.7	0	1	22	0.00	30.209 
18:25	88.2	88.2	93.4	55	70.0	1	3	0	0.00	30.209 
18:30	88.0	88.0	93.0	55	69.8	0	1	0	0.00	30.209 
18:35	87.8	87.8	93.0	56	70.1	0	2	0	0.00	30.209 
18:40	88.0	88.0	93.8	57	70.8	0	2	90	0.00	30.209 
18:45	88.0	88.0	93.4	56	70.3	0	2	90	0.00	30.206 
18:50	88.2	88.2	93.4	55	70.0	0	2	90	0.00	30.206 
18:55	88.2	88.2	92.9	54	69.4	0	1	90	0.00	30.206 
19:00	88.2	88.2	92.9	54	69.4	0	1	90	0.00	30.207 
19:05	88.0	88.0	93.0	55	69.8	0	2	90	0.00	30.207 
19:10	88.0	88.0	93.0	55	69.8	1	3	90	0.00	30.207 
19:15	87.8	87.8	93.0	56	70.1	0	2	90	0.00	30.203 
19:20	87.8	87.8	93.0	56	70.1	0	1	90	0.00	30.203 
19:25	87.6	87.6	92.6	56	69.9	0	2	90	0.00	30.203 
19:30	87.6	87.6	92.6	56	69.9	0	1	90	0.00	30.204 
19:35	87.4	87.4	92.6	57	70.3	0	2	90	0.00	30.204 
19:40	87.4	87.4	92.2	56	69.7	0	1	90	0.00	30.204 
19:45	87.2	87.2	91.9	56	69.6	0	3	90	0.00	30.205 
19:50	87.0	87.0	91.1	55	68.8	0	1	90	0.00	30.205 
19:55	86.7	86.7	90.6	55	68.6	0	2	90	0.00	30.205 
20:00	86.7	86.7	91.3	57	69.6	0	1	90	0.00	30.208 
20:05	86.7	86.7	91.3	57	69.6	0	1	90	0.00	30.208 
20:10	86.5	86.5	91.0	57	69.4	0	0	---	0.00	30.208 
20:15	86.5	86.5	90.6	56	68.9	0	1	90	0.00	30.202 
20:20	86.3	86.3	90.6	57	69.2	0	0	---	0.00	30.202 
20:25	86.1	86.1	90.6	58	69.6	0	1	90	0.00	30.202 
20:30	85.9	85.9	90.2	58	69.4	0	1	90	0.00	30.199 
20:35	85.7	85.7	89.9	58	69.2	0	1	90	0.00	30.199 
20:40	85.7	85.7	89.9	58	69.2	0	2	90	0.00	30.199 
20:45	85.3	85.3	89.2	58	68.8	0	0	---	0.00	30.199 
20:50	85.1	85.1	89.1	59	69.1	0	0	---	0.00	30.199 
20:55	84.7	84.7	88.4	59	68.8	0	0	---	0.00	30.199 
21:00	84.5	84.5	88.4	60	69.1	0	0	---	0.00	30.202 
21:05	84.1	84.1	88.0	61	69.2	0	0	---	0.00	30.202 
21:10	84.0	84.0	87.8	61	69.1	0	0	---	0.00	30.202 
21:15	83.8	83.8	87.7	62	69.4	0	0	---	0.00	30.202 
21:20	83.4	83.4	87.0	62	69.0	0	0	---	0.00	30.202 
21:25	83.2	83.2	86.9	63	69.3	0	0	---	0.00	30.202 
21:30	83.0	83.0	86.9	64	69.5	0	0	---	0.00	30.212 
21:35	82.8	82.8	86.7	65	69.8	0	0	---	0.00	30.212 
21:40	82.6	82.6	86.4	65	69.6	0	0	---	0.00	30.212 
21:45	82.4	82.4	86.1	65	69.4	0	0	---	0.00	30.225 
21:50	82.0	82.0	85.6	66	69.5	0	0	---	0.00	30.225 
21:55	81.8	81.8	85.5	67	69.7	0	0	---	0.00	30.225 
22:00	81.6	81.6	85.3	68	70.0	0	0	---	0.00	30.234 
22:05	81.2	81.2	84.8	69	70.0	0	0	---	0.00	30.234 
22:10	81.1	81.1	84.6	69	69.9	0	0	---	0.00	30.234 
22:15	80.9	80.9	84.5	70	70.2	0	0	---	0.00	30.240 
22:20	80.7	80.7	84.1	70	70.0	0	0	---	0.00	30.240 
22:25	80.5	80.5	83.9	71	70.2	0	0	---	0.00	30.240 
22:30	80.3	80.3	83.6	71	70.0	0	0	---	0.00	30.247 
22:35	80.1	80.1	83.4	72	70.2	0	0	---	0.00	30.247 
22:40	80.1	80.1	83.5	73	70.6	0	0	---	0.00	30.247 
22:45	80.1	80.1	83.5	73	70.6	0	0	---	0.00	30.248 
22:50	80.1	80.1	83.6	74	71.0	0	0	---	0.00	30.248 
22:55	80.1	80.1	83.6	74	71.0	0	0	---	0.00	30.248 
23:00	80.1	80.1	83.6	74	71.0	0	0	---	0.00	30.247 
23:05	80.1	80.1	83.8	75	71.4	0	0	---	0.00	30.247 
23:10	80.1	80.1	83.8	75	71.4	0	0	---	0.00	30.247 
23:15	79.9	79.9	83.4	75	71.2	0	0	---	0.00	30.244 
23:20	79.9	79.9	83.5	76	71.6	0	0	---	0.00	30.244 
23:25	79.8	79.8	83.3	76	71.5	0	0	---	0.00	30.244 
23:30	79.6	79.6	83.0	76	71.3	0	0	---	0.00	30.242 
23:35	79.4	79.4	82.7	77	71.5	0	0	---	0.00	30.242 
23:40	79.2	79.2	82.3	77	71.3	0	0	---	0.00	30.242 
23:45	79.0	79.0	82.0	78	71.5	0	0	---	0.00	30.244 
23:50	79.0	79.0	82.0	78	71.5	0	0	---	0.00	30.244 
23:55	78.8	78.8	81.7	79	71.7	0	0	---	0.00	30.244 

CoCoRaHS
IN-AL-39
A2 Web Hosting
Creative Commons License
GoDaddy
search engine by freefind advanced

loaded 2018-11-17 23:44:58 • last modified 2010-11-18 10:43:29
Privacy PolicyDisclaimer
• wx.awcolley.com is powered by PmWiki v.2002016 •
• all content (unless otherwise noted) © 2018 A W Colley